sensor_id;sensor_type;location;lat;lon;timestamp;P1;durP1;ratioP1;P2;durP2;ratioP2
7316;SDS011;3699;51.462;6.696;2024-02-14T00:01:18;6.67;;;4.17;;
7316;SDS011;3699;51.462;6.696;2024-02-14T00:03:45;7.57;;;4.03;;
7316;SDS011;3699;51.462;6.696;2024-02-14T00:06:12;6.73;;;4.17;;
7316;SDS011;3699;51.462;6.696;2024-02-14T00:08:39;7.77;;;4.57;;
7316;SDS011;3699;51.462;6.696;2024-02-14T00:11:05;12.33;;;4.20;;
7316;SDS011;3699;51.462;6.696;2024-02-14T00:13:32;11.13;;;4.43;;
7316;SDS011;3699;51.462;6.696;2024-02-14T00:16:01;7.07;;;4.20;;
7316;SDS011;3699;51.462;6.696;2024-02-14T00:18:28;4.77;;;4.27;;
7316;SDS011;3699;51.462;6.696;2024-02-14T00:20:55;5.50;;;4.00;;
7316;SDS011;3699;51.462;6.696;2024-02-14T00:23:22;9.00;;;3.70;;
7316;SDS011;3699;51.462;6.696;2024-02-14T00:25:48;10.83;;;5.33;;
7316;SDS011;3699;51.462;6.696;2024-02-14T00:28:15;8.73;;;3.70;;
7316;SDS011;3699;51.462;6.696;2024-02-14T00:30:42;8.30;;;3.73;;
7316;SDS011;3699;51.462;6.696;2024-02-14T00:33:10;4.27;;;3.50;;
7316;SDS011;3699;51.462;6.696;2024-02-14T00:35:37;4.00;;;3.17;;
7316;SDS011;3699;51.462;6.696;2024-02-14T00:38:04;6.87;;;3.50;;
7316;SDS011;3699;51.462;6.696;2024-02-14T00:40:30;6.47;;;3.60;;
7316;SDS011;3699;51.462;6.696;2024-02-14T00:42:58;5.83;;;3.33;;
7316;SDS011;3699;51.462;6.696;2024-02-14T00:45:24;8.10;;;4.53;;
7316;SDS011;3699;51.462;6.696;2024-02-14T00:47:51;11.53;;;4.40;;
7316;SDS011;3699;51.462;6.696;2024-02-14T00:50:19;5.27;;;4.53;;
7316;SDS011;3699;51.462;6.696;2024-02-14T00:52:46;5.43;;;4.33;;
7316;SDS011;3699;51.462;6.696;2024-02-14T00:55:13;9.30;;;4.53;;
7316;SDS011;3699;51.462;6.696;2024-02-14T00:57:40;6.07;;;4.63;;
7316;SDS011;3699;51.462;6.696;2024-02-14T01:00:07;7.47;;;4.50;;
7316;SDS011;3699;51.462;6.696;2024-02-14T01:02:34;6.23;;;4.17;;
7316;SDS011;3699;51.462;6.696;2024-02-14T01:05:01;8.27;;;4.53;;
7316;SDS011;3699;51.462;6.696;2024-02-14T01:07:30;7.00;;;4.30;;
7316;SDS011;3699;51.462;6.696;2024-02-14T01:09:57;6.30;;;4.40;;
7316;SDS011;3699;51.462;6.696;2024-02-14T01:12:24;6.03;;;4.13;;
7316;SDS011;3699;51.462;6.696;2024-02-14T01:14:50;8.07;;;4.53;;
7316;SDS011;3699;51.462;6.696;2024-02-14T01:17:17;5.97;;;4.20;;
7316;SDS011;3699;51.462;6.696;2024-02-14T01:19:44;8.27;;;3.87;;
7316;SDS011;3699;51.462;6.696;2024-02-14T01:22:11;8.57;;;4.37;;
7316;SDS011;3699;51.462;6.696;2024-02-14T01:24:42;5.47;;;4.00;;
7316;SDS011;3699;51.462;6.696;2024-02-14T01:27:09;7.40;;;4.20;;
7316;SDS011;3699;51.462;6.696;2024-02-14T01:29:36;5.57;;;4.10;;
7316;SDS011;3699;51.462;6.696;2024-02-14T01:32:03;9.90;;;4.00;;
7316;SDS011;3699;51.462;6.696;2024-02-14T01:34:31;6.63;;;4.03;;
7316;SDS011;3699;51.462;6.696;2024-02-14T01:36:58;9.93;;;3.30;;
7316;SDS011;3699;51.462;6.696;2024-02-14T01:39:25;4.70;;;3.40;;
7316;SDS011;3699;51.462;6.696;2024-02-14T01:41:53;8.57;;;4.17;;
7316;SDS011;3699;51.462;6.696;2024-02-14T01:44:20;4.53;;;3.60;;
7316;SDS011;3699;51.462;6.696;2024-02-14T01:46:47;4.10;;;3.70;;
7316;SDS011;3699;51.462;6.696;2024-02-14T01:49:13;6.47;;;3.73;;
7316;SDS011;3699;51.462;6.696;2024-02-14T01:51:42;6.03;;;4.20;;
7316;SDS011;3699;51.462;6.696;2024-02-14T01:54:11;5.73;;;4.00;;
7316;SDS011;3699;51.462;6.696;2024-02-14T01:56:38;5.17;;;3.90;;
7316;SDS011;3699;51.462;6.696;2024-02-14T01:59:07;6.10;;;3.97;;
7316;SDS011;3699;51.462;6.696;2024-02-14T02:01:35;5.13;;;3.10;;
7316;SDS011;3699;51.462;6.696;2024-02-14T02:04:02;6.70;;;3.63;;
7316;SDS011;3699;51.462;6.696;2024-02-14T02:06:29;2.60;;;2.40;;
7316;SDS011;3699;51.462;6.696;2024-02-14T02:08:56;3.60;;;2.60;;
7316;SDS011;3699;51.462;6.696;2024-02-14T02:11:24;4.77;;;2.80;;
7316;SDS011;3699;51.462;6.696;2024-02-14T02:13:51;2.53;;;2.20;;
7316;SDS011;3699;51.462;6.696;2024-02-14T02:16:19;5.27;;;2.30;;
7316;SDS011;3699;51.462;6.696;2024-02-14T02:18:46;3.93;;;2.27;;
7316;SDS011;3699;51.462;6.696;2024-02-14T02:21:13;6.07;;;2.27;;
7316;SDS011;3699;51.462;6.696;2024-02-14T02:23:41;2.40;;;2.20;;
7316;SDS011;3699;51.462;6.696;2024-02-14T02:26:09;2.40;;;2.20;;
7316;SDS011;3699;51.462;6.696;2024-02-14T02:28:36;4.47;;;2.73;;
7316;SDS011;3699;51.462;6.696;2024-02-14T02:31:04;2.67;;;2.03;;
7316;SDS011;3699;51.462;6.696;2024-02-14T02:33:32;2.37;;;2.17;;
7316;SDS011;3699;51.462;6.696;2024-02-14T02:35:58;3.53;;;2.43;;
7316;SDS011;3699;51.462;6.696;2024-02-14T02:38:25;2.77;;;2.50;;
7316;SDS011;3699;51.462;6.696;2024-02-14T02:40:53;2.37;;;2.17;;
7316;SDS011;3699;51.462;6.696;2024-02-14T02:43:20;3.07;;;2.50;;
7316;SDS011;3699;51.462;6.696;2024-02-14T02:45:47;2.40;;;2.20;;
7316;SDS011;3699;51.462;6.696;2024-02-14T02:48:13;2.80;;;2.60;;
7316;SDS011;3699;51.462;6.696;2024-02-14T02:50:40;2.70;;;2.30;;
7316;SDS011;3699;51.462;6.696;2024-02-14T02:53:07;3.97;;;2.80;;
7316;SDS011;3699;51.462;6.696;2024-02-14T02:55:34;4.13;;;2.53;;
7316;SDS011;3699;51.462;6.696;2024-02-14T02:58:03;2.83;;;2.50;;
7316;SDS011;3699;51.462;6.696;2024-02-14T03:00:31;2.83;;;2.43;;
7316;SDS011;3699;51.462;6.696;2024-02-14T03:02:58;3.33;;;2.30;;
7316;SDS011;3699;51.462;6.696;2024-02-14T03:05:25;6.13;;;3.20;;
7316;SDS011;3699;51.462;6.696;2024-02-14T03:07:52;2.87;;;2.40;;
7316;SDS011;3699;51.462;6.696;2024-02-14T03:10:21;4.10;;;2.73;;
7316;SDS011;3699;51.462;6.696;2024-02-14T03:12:47;2.47;;;2.20;;
7316;SDS011;3699;51.462;6.696;2024-02-14T03:15:16;2.70;;;2.50;;
7316;SDS011;3699;51.462;6.696;2024-02-14T03:17:43;3.07;;;2.70;;
7316;SDS011;3699;51.462;6.696;2024-02-14T03:20:11;4.57;;;3.43;;
7316;SDS011;3699;51.462;6.696;2024-02-14T03:22:38;2.87;;;2.57;;
7316;SDS011;3699;51.462;6.696;2024-02-14T03:25:09;3.77;;;3.10;;
7316;SDS011;3699;51.462;6.696;2024-02-14T03:27:38;6.00;;;2.80;;
7316;SDS011;3699;51.462;6.696;2024-02-14T03:30:05;7.90;;;3.07;;
7316;SDS011;3699;51.462;6.696;2024-02-14T03:32:34;8.17;;;3.13;;
7316;SDS011;3699;51.462;6.696;2024-02-14T03:35:01;3.53;;;3.03;;
7316;SDS011;3699;51.462;6.696;2024-02-14T03:37:27;3.40;;;3.10;;
7316;SDS011;3699;51.462;6.696;2024-02-14T03:39:54;4.43;;;2.80;;
7316;SDS011;3699;51.462;6.696;2024-02-14T03:42:21;5.10;;;3.70;;
7316;SDS011;3699;51.462;6.696;2024-02-14T03:44:48;4.57;;;3.27;;
7316;SDS011;3699;51.462;6.696;2024-02-14T03:47:15;5.80;;;3.33;;
7316;SDS011;3699;51.462;6.696;2024-02-14T03:49:43;3.57;;;2.80;;
7316;SDS011;3699;51.462;6.696;2024-02-14T03:52:09;6.50;;;2.97;;
7316;SDS011;3699;51.462;6.696;2024-02-14T03:54:36;4.80;;;3.60;;
7316;SDS011;3699;51.462;6.696;2024-02-14T03:57:03;5.80;;;3.60;;
7316;SDS011;3699;51.462;6.696;2024-02-14T03:59:35;4.63;;;3.30;;
7316;SDS011;3699;51.462;6.696;2024-02-14T04:02:03;5.87;;;3.13;;
7316;SDS011;3699;51.462;6.696;2024-02-14T04:04:31;4.70;;;3.70;;
7316;SDS011;3699;51.462;6.696;2024-02-14T04:07:00;3.53;;;3.13;;
7316;SDS011;3699;51.462;6.696;2024-02-14T04:09:27;3.83;;;3.13;;
7316;SDS011;3699;51.462;6.696;2024-02-14T04:11:54;5.73;;;3.40;;
7316;SDS011;3699;51.462;6.696;2024-02-14T04:14:21;4.07;;;3.30;;
7316;SDS011;3699;51.462;6.696;2024-02-14T04:16:47;4.57;;;3.83;;
7316;SDS011;3699;51.462;6.696;2024-02-14T04:19:14;5.40;;;4.10;;
7316;SDS011;3699;51.462;6.696;2024-02-14T04:21:42;6.13;;;3.50;;
7316;SDS011;3699;51.462;6.696;2024-02-14T04:24:10;5.47;;;3.30;;
7316;SDS011;3699;51.462;6.696;2024-02-14T04:26:37;5.67;;;2.93;;
7316;SDS011;3699;51.462;6.696;2024-02-14T04:29:04;6.33;;;3.63;;
7316;SDS011;3699;51.462;6.696;2024-02-14T04:31:30;6.97;;;3.47;;
7316;SDS011;3699;51.462;6.696;2024-02-14T04:33:57;5.23;;;3.20;;
7316;SDS011;3699;51.462;6.696;2024-02-14T04:36:25;4.73;;;3.50;;
7316;SDS011;3699;51.462;6.696;2024-02-14T04:38:52;5.90;;;3.87;;
7316;SDS011;3699;51.462;6.696;2024-02-14T04:41:22;5.77;;;4.07;;
7316;SDS011;3699;51.462;6.696;2024-02-14T04:43:48;6.67;;;3.23;;
7316;SDS011;3699;51.462;6.696;2024-02-14T04:46:15;4.30;;;3.77;;
7316;SDS011;3699;51.462;6.696;2024-02-14T04:48:42;4.00;;;3.67;;
7316;SDS011;3699;51.462;6.696;2024-02-14T04:51:09;5.93;;;3.93;;
7316;SDS011;3699;51.462;6.696;2024-02-14T04:53:35;6.13;;;3.73;;
7316;SDS011;3699;51.462;6.696;2024-02-14T04:56:03;4.50;;;3.30;;
7316;SDS011;3699;51.462;6.696;2024-02-14T04:58:31;3.80;;;3.50;;
7316;SDS011;3699;51.462;6.696;2024-02-14T05:00:58;3.90;;;3.60;;
7316;SDS011;3699;51.462;6.696;2024-02-14T05:03:26;3.90;;;3.50;;
7316;SDS011;3699;51.462;6.696;2024-02-14T05:05:53;6.60;;;5.07;;
7316;SDS011;3699;51.462;6.696;2024-02-14T05:08:19;5.43;;;4.07;;
7316;SDS011;3699;51.462;6.696;2024-02-14T05:10:46;6.90;;;3.80;;
7316;SDS011;3699;51.462;6.696;2024-02-14T05:13:13;4.83;;;3.50;;
7316;SDS011;3699;51.462;6.696;2024-02-14T05:15:42;9.37;;;4.13;;
7316;SDS011;3699;51.462;6.696;2024-02-14T05:18:09;9.57;;;4.10;;
7316;SDS011;3699;51.462;6.696;2024-02-14T05:20:35;5.63;;;3.63;;
7316;SDS011;3699;51.462;6.696;2024-02-14T05:23:03;6.87;;;4.17;;
7316;SDS011;3699;51.462;6.696;2024-02-14T05:25:30;6.33;;;3.77;;
7316;SDS011;3699;51.462;6.696;2024-02-14T05:27:58;4.27;;;3.87;;
7316;SDS011;3699;51.462;6.696;2024-02-14T05:30:26;5.27;;;4.10;;
7316;SDS011;3699;51.462;6.696;2024-02-14T05:32:54;8.30;;;4.60;;
7316;SDS011;3699;51.462;6.696;2024-02-14T05:35:21;4.70;;;4.17;;
7316;SDS011;3699;51.462;6.696;2024-02-14T05:37:48;4.30;;;3.87;;
7316;SDS011;3699;51.462;6.696;2024-02-14T05:40:16;8.47;;;5.03;;
7316;SDS011;3699;51.462;6.696;2024-02-14T05:42:43;7.17;;;3.90;;
7316;SDS011;3699;51.462;6.696;2024-02-14T05:45:09;6.17;;;4.27;;
7316;SDS011;3699;51.462;6.696;2024-02-14T05:47:36;6.20;;;4.00;;
7316;SDS011;3699;51.462;6.696;2024-02-14T05:50:06;6.77;;;4.60;;
7316;SDS011;3699;51.462;6.696;2024-02-14T05:52:36;4.70;;;4.20;;
7316;SDS011;3699;51.462;6.696;2024-02-14T05:55:03;7.50;;;3.77;;
7316;SDS011;3699;51.462;6.696;2024-02-14T05:57:30;4.50;;;4.10;;
7316;SDS011;3699;51.462;6.696;2024-02-14T05:59:57;5.13;;;4.50;;
7316;SDS011;3699;51.462;6.696;2024-02-14T06:02:24;6.20;;;4.80;;
7316;SDS011;3699;51.462;6.696;2024-02-14T06:04:51;8.80;;;4.80;;
7316;SDS011;3699;51.462;6.696;2024-02-14T06:07:19;5.27;;;4.47;;
7316;SDS011;3699;51.462;6.696;2024-02-14T06:09:45;5.73;;;4.80;;
7316;SDS011;3699;51.462;6.696;2024-02-14T06:12:12;6.80;;;4.97;;
7316;SDS011;3699;51.462;6.696;2024-02-14T06:14:39;6.27;;;4.90;;
7316;SDS011;3699;51.462;6.696;2024-02-14T06:17:05;5.70;;;4.77;;
7316;SDS011;3699;51.462;6.696;2024-02-14T06:19:32;7.37;;;5.80;;
7316;SDS011;3699;51.462;6.696;2024-02-14T06:22:00;10.13;;;5.73;;
7316;SDS011;3699;51.462;6.696;2024-02-14T06:24:28;7.20;;;5.53;;
7316;SDS011;3699;51.462;6.696;2024-02-14T06:26:54;7.30;;;5.30;;
7316;SDS011;3699;51.462;6.696;2024-02-14T06:29:21;7.40;;;5.43;;
7316;SDS011;3699;51.462;6.696;2024-02-14T06:31:48;7.23;;;5.13;;
7316;SDS011;3699;51.462;6.696;2024-02-14T06:34:15;6.90;;;5.67;;
7316;SDS011;3699;51.462;6.696;2024-02-14T06:36:43;6.70;;;5.03;;
7316;SDS011;3699;51.462;6.696;2024-02-14T06:39:10;5.80;;;5.20;;
7316;SDS011;3699;51.462;6.696;2024-02-14T06:41:38;7.83;;;5.57;;
7316;SDS011;3699;51.462;6.696;2024-02-14T06:44:05;6.97;;;4.87;;
7316;SDS011;3699;51.462;6.696;2024-02-14T06:46:32;8.17;;;5.33;;
7316;SDS011;3699;51.462;6.696;2024-02-14T06:49:00;6.00;;;5.10;;
7316;SDS011;3699;51.462;6.696;2024-02-14T06:51:27;5.97;;;4.80;;
7316;SDS011;3699;51.462;6.696;2024-02-14T06:53:55;8.23;;;4.90;;
7316;SDS011;3699;51.462;6.696;2024-02-14T06:56:22;6.37;;;5.50;;
7316;SDS011;3699;51.462;6.696;2024-02-14T06:58:50;6.70;;;5.17;;
7316;SDS011;3699;51.462;6.696;2024-02-14T07:01:24;8.80;;;5.90;;
7316;SDS011;3699;51.462;6.696;2024-02-14T07:03:52;10.33;;;6.10;;
7316;SDS011;3699;51.462;6.696;2024-02-14T07:06:18;8.73;;;6.50;;
7316;SDS011;3699;51.462;6.696;2024-02-14T07:08:45;8.63;;;6.50;;
7316;SDS011;3699;51.462;6.696;2024-02-14T07:11:13;13.37;;;7.03;;
7316;SDS011;3699;51.462;6.696;2024-02-14T07:13:41;8.07;;;5.80;;
7316;SDS011;3699;51.462;6.696;2024-02-14T07:16:09;7.33;;;6.30;;
7316;SDS011;3699;51.462;6.696;2024-02-14T07:18:36;8.23;;;5.97;;
7316;SDS011;3699;51.462;6.696;2024-02-14T07:21:03;9.97;;;6.73;;
7316;SDS011;3699;51.462;6.696;2024-02-14T07:23:30;6.73;;;5.63;;
7316;SDS011;3699;51.462;6.696;2024-02-14T07:25:58;10.33;;;6.40;;
7316;SDS011;3699;51.462;6.696;2024-02-14T07:28:25;8.90;;;6.40;;
7316;SDS011;3699;51.462;6.696;2024-02-14T07:30:52;6.67;;;5.97;;
7316;SDS011;3699;51.462;6.696;2024-02-14T07:33:20;9.20;;;6.13;;
7316;SDS011;3699;51.462;6.696;2024-02-14T07:35:48;7.20;;;5.67;;
7316;SDS011;3699;51.462;6.696;2024-02-14T07:38:15;9.17;;;5.97;;
7316;SDS011;3699;51.462;6.696;2024-02-14T07:40:42;10.30;;;6.50;;
7316;SDS011;3699;51.462;6.696;2024-02-14T07:43:09;9.33;;;5.43;;
7316;SDS011;3699;51.462;6.696;2024-02-14T07:45:36;8.57;;;6.20;;
7316;SDS011;3699;51.462;6.696;2024-02-14T07:48:03;7.23;;;5.67;;
7316;SDS011;3699;51.462;6.696;2024-02-14T07:50:32;7.73;;;5.83;;
7316;SDS011;3699;51.462;6.696;2024-02-14T07:52:58;10.50;;;6.37;;
7316;SDS011;3699;51.462;6.696;2024-02-14T07:55:25;8.47;;;6.13;;
7316;SDS011;3699;51.462;6.696;2024-02-14T07:57:54;10.40;;;6.33;;
7316;SDS011;3699;51.462;6.696;2024-02-14T08:00:21;6.20;;;5.57;;
7316;SDS011;3699;51.462;6.696;2024-02-14T08:02:48;8.03;;;5.80;;
7316;SDS011;3699;51.462;6.696;2024-02-14T08:05:15;8.83;;;5.33;;
7316;SDS011;3699;51.462;6.696;2024-02-14T08:07:45;6.30;;;5.03;;
7316;SDS011;3699;51.462;6.696;2024-02-14T08:10:12;10.53;;;5.70;;
7316;SDS011;3699;51.462;6.696;2024-02-14T08:12:38;9.47;;;5.67;;
7316;SDS011;3699;51.462;6.696;2024-02-14T08:15:05;9.93;;;5.70;;
7316;SDS011;3699;51.462;6.696;2024-02-14T08:17:33;10.87;;;5.57;;
7316;SDS011;3699;51.462;6.696;2024-02-14T08:20:00;6.37;;;5.13;;
7316;SDS011;3699;51.462;6.696;2024-02-14T08:22:29;7.73;;;4.87;;
7316;SDS011;3699;51.462;6.696;2024-02-14T08:24:57;6.27;;;5.10;;
7316;SDS011;3699;51.462;6.696;2024-02-14T08:27:24;5.60;;;4.90;;
7316;SDS011;3699;51.462;6.696;2024-02-14T08:29:52;8.80;;;4.47;;
7316;SDS011;3699;51.462;6.696;2024-02-14T08:32:19;6.53;;;4.63;;
7316;SDS011;3699;51.462;6.696;2024-02-14T08:34:46;8.83;;;4.50;;
7316;SDS011;3699;51.462;6.696;2024-02-14T08:37:13;9.97;;;4.77;;
7316;SDS011;3699;51.462;6.696;2024-02-14T08:39:39;11.80;;;5.17;;
7316;SDS011;3699;51.462;6.696;2024-02-14T08:42:08;8.67;;;4.57;;
7316;SDS011;3699;51.462;6.696;2024-02-14T08:44:35;6.23;;;3.90;;
7316;SDS011;3699;51.462;6.696;2024-02-14T08:47:02;7.17;;;4.57;;
7316;SDS011;3699;51.462;6.696;2024-02-14T08:49:29;6.67;;;3.83;;
7316;SDS011;3699;51.462;6.696;2024-02-14T08:51:56;6.07;;;3.43;;
7316;SDS011;3699;51.462;6.696;2024-02-14T08:54:23;7.93;;;3.73;;
7316;SDS011;3699;51.462;6.696;2024-02-14T08:56:50;8.17;;;4.40;;
7316;SDS011;3699;51.462;6.696;2024-02-14T08:59:21;10.37;;;3.97;;
7316;SDS011;3699;51.462;6.696;2024-02-14T09:01:48;6.27;;;4.83;;
7316;SDS011;3699;51.462;6.696;2024-02-14T09:04:15;5.27;;;3.43;;
7316;SDS011;3699;51.462;6.696;2024-02-14T09:06:41;6.83;;;3.87;;
7316;SDS011;3699;51.462;6.696;2024-02-14T09:09:08;7.20;;;3.93;;
7316;SDS011;3699;51.462;6.696;2024-02-14T09:11:35;6.70;;;3.63;;
7316;SDS011;3699;51.462;6.696;2024-02-14T09:14:03;8.03;;;3.90;;
7316;SDS011;3699;51.462;6.696;2024-02-14T09:16:32;9.43;;;4.03;;
7316;SDS011;3699;51.462;6.696;2024-02-14T09:18:59;6.60;;;3.77;;
7316;SDS011;3699;51.462;6.696;2024-02-14T09:21:27;7.07;;;3.87;;
7316;SDS011;3699;51.462;6.696;2024-02-14T09:23:54;6.47;;;4.23;;
7316;SDS011;3699;51.462;6.696;2024-02-14T09:26:20;3.73;;;3.17;;
7316;SDS011;3699;51.462;6.696;2024-02-14T09:28:47;24.60;;;5.00;;
7316;SDS011;3699;51.462;6.696;2024-02-14T09:31:17;7.10;;;3.67;;
7316;SDS011;3699;51.462;6.696;2024-02-14T09:33:46;5.63;;;3.53;;
7316;SDS011;3699;51.462;6.696;2024-02-14T09:36:14;7.17;;;3.80;;
7316;SDS011;3699;51.462;6.696;2024-02-14T09:38:41;9.57;;;3.47;;
7316;SDS011;3699;51.462;6.696;2024-02-14T09:41:11;5.20;;;3.63;;
7316;SDS011;3699;51.462;6.696;2024-02-14T09:43:43;17.67;;;5.13;;
7316;SDS011;3699;51.462;6.696;2024-02-14T09:46:11;6.10;;;3.83;;
7316;SDS011;3699;51.462;6.696;2024-02-14T09:48:39;4.50;;;3.30;;
7316;SDS011;3699;51.462;6.696;2024-02-14T09:51:10;4.27;;;3.47;;
7316;SDS011;3699;51.462;6.696;2024-02-14T09:53:38;6.33;;;3.23;;
7316;SDS011;3699;51.462;6.696;2024-02-14T09:56:05;6.93;;;3.50;;
7316;SDS011;3699;51.462;6.696;2024-02-14T09:58:35;7.43;;;3.10;;
7316;SDS011;3699;51.462;6.696;2024-02-14T10:01:03;9.33;;;3.27;;
7316;SDS011;3699;51.462;6.696;2024-02-14T10:03:30;4.50;;;2.90;;
7316;SDS011;3699;51.462;6.696;2024-02-14T10:05:56;5.20;;;2.80;;
7316;SDS011;3699;51.462;6.696;2024-02-14T10:08:24;7.87;;;3.13;;
7316;SDS011;3699;51.462;6.696;2024-02-14T10:10:52;6.77;;;3.70;;
7316;SDS011;3699;51.462;6.696;2024-02-14T10:13:19;8.47;;;3.40;;
7316;SDS011;3699;51.462;6.696;2024-02-14T10:15:45;7.13;;;3.10;;
7316;SDS011;3699;51.462;6.696;2024-02-14T10:18:14;3.93;;;2.97;;
7316;SDS011;3699;51.462;6.696;2024-02-14T10:20:41;4.53;;;2.97;;
7316;SDS011;3699;51.462;6.696;2024-02-14T10:23:18;9.30;;;3.40;;
7316;SDS011;3699;51.462;6.696;2024-02-14T10:25:46;4.33;;;2.83;;
7316;SDS011;3699;51.462;6.696;2024-02-14T10:28:14;11.90;;;4.73;;
7316;SDS011;3699;51.462;6.696;2024-02-14T10:30:44;5.23;;;3.17;;
7316;SDS011;3699;51.462;6.696;2024-02-14T10:33:11;4.83;;;3.37;;
7316;SDS011;3699;51.462;6.696;2024-02-14T10:35:38;5.47;;;3.03;;
7316;SDS011;3699;51.462;6.696;2024-02-14T10:38:07;8.07;;;3.80;;
7316;SDS011;3699;51.462;6.696;2024-02-14T10:40:34;7.20;;;2.87;;
7316;SDS011;3699;51.462;6.696;2024-02-14T10:43:05;4.07;;;2.73;;
7316;SDS011;3699;51.462;6.696;2024-02-14T10:45:32;5.43;;;2.90;;
7316;SDS011;3699;51.462;6.696;2024-02-14T10:47:59;10.97;;;3.30;;
7316;SDS011;3699;51.462;6.696;2024-02-14T10:50:27;3.57;;;2.90;;
7316;SDS011;3699;51.462;6.696;2024-02-14T10:52:58;6.53;;;2.80;;
7316;SDS011;3699;51.462;6.696;2024-02-14T10:55:30;4.50;;;3.33;;
7316;SDS011;3699;51.462;6.696;2024-02-14T10:57:57;12.63;;;3.43;;
7316;SDS011;3699;51.462;6.696;2024-02-14T11:00:26;7.07;;;3.40;;
7316;SDS011;3699;51.462;6.696;2024-02-14T11:02:55;5.33;;;3.50;;
7316;SDS011;3699;51.462;6.696;2024-02-14T11:05:23;8.57;;;3.13;;
7316;SDS011;3699;51.462;6.696;2024-02-14T11:07:51;5.33;;;3.70;;
7316;SDS011;3699;51.462;6.696;2024-02-14T11:10:18;7.97;;;3.33;;
7316;SDS011;3699;51.462;6.696;2024-02-14T11:12:47;3.97;;;2.80;;
7316;SDS011;3699;51.462;6.696;2024-02-14T11:15:16;7.10;;;3.17;;
7316;SDS011;3699;51.462;6.696;2024-02-14T11:17:45;8.37;;;2.77;;
7316;SDS011;3699;51.462;6.696;2024-02-14T11:20:15;6.07;;;2.73;;
7316;SDS011;3699;51.462;6.696;2024-02-14T11:22:56;7.70;;;2.80;;
7316;SDS011;3699;51.462;6.696;2024-02-14T11:25:28;4.47;;;2.67;;
7316;SDS011;3699;51.462;6.696;2024-02-14T11:27:59;6.77;;;3.40;;
7316;SDS011;3699;51.462;6.696;2024-02-14T11:30:30;5.90;;;2.57;;
7316;SDS011;3699;51.462;6.696;2024-02-14T11:33:17;4.53;;;2.40;;
7316;SDS011;3699;51.462;6.696;2024-02-14T11:35:45;2.73;;;2.27;;
7316;SDS011;3699;51.462;6.696;2024-02-14T11:38:15;3.23;;;2.40;;
7316;SDS011;3699;51.462;6.696;2024-02-14T11:40:41;2.37;;;2.17;;
7316;SDS011;3699;51.462;6.696;2024-02-14T11:43:12;5.33;;;2.50;;
7316;SDS011;3699;51.462;6.696;2024-02-14T11:45:39;4.10;;;2.70;;
7316;SDS011;3699;51.462;6.696;2024-02-14T11:48:08;2.97;;;2.63;;
7316;SDS011;3699;51.462;6.696;2024-02-14T11:50:37;3.43;;;2.20;;
7316;SDS011;3699;51.462;6.696;2024-02-14T11:53:05;6.80;;;2.60;;
7316;SDS011;3699;51.462;6.696;2024-02-14T11:55:32;2.87;;;2.00;;
7316;SDS011;3699;51.462;6.696;2024-02-14T11:58:02;8.60;;;2.17;;
7316;SDS011;3699;51.462;6.696;2024-02-14T12:00:29;3.43;;;2.40;;
7316;SDS011;3699;51.462;6.696;2024-02-14T12:02:56;3.07;;;1.90;;
7316;SDS011;3699;51.462;6.696;2024-02-14T12:05:23;4.63;;;2.20;;
7316;SDS011;3699;51.462;6.696;2024-02-14T12:07:51;5.30;;;2.00;;
7316;SDS011;3699;51.462;6.696;2024-02-14T12:10:18;4.77;;;2.20;;
7316;SDS011;3699;51.462;6.696;2024-02-14T12:12:46;4.43;;;2.10;;
7316;SDS011;3699;51.462;6.696;2024-02-14T12:15:13;5.67;;;2.13;;
7316;SDS011;3699;51.462;6.696;2024-02-14T12:17:41;2.10;;;1.90;;
7316;SDS011;3699;51.462;6.696;2024-02-14T12:20:08;3.77;;;2.30;;
7316;SDS011;3699;51.462;6.696;2024-02-14T12:22:36;3.70;;;2.33;;
7316;SDS011;3699;51.462;6.696;2024-02-14T12:25:05;2.30;;;2.00;;
7316;SDS011;3699;51.462;6.696;2024-02-14T12:27:32;3.93;;;1.90;;
7316;SDS011;3699;51.462;6.696;2024-02-14T12:30:02;3.23;;;2.07;;
7316;SDS011;3699;51.462;6.696;2024-02-14T12:32:30;3.93;;;1.80;;
7316;SDS011;3699;51.462;6.696;2024-02-14T12:34:56;1.77;;;1.63;;
7316;SDS011;3699;51.462;6.696;2024-02-14T12:37:24;4.07;;;2.30;;
7316;SDS011;3699;51.462;6.696;2024-02-14T12:39:50;3.20;;;2.20;;
7316;SDS011;3699;51.462;6.696;2024-02-14T12:42:19;3.03;;;1.70;;
7316;SDS011;3699;51.462;6.696;2024-02-14T12:44:50;9.17;;;2.00;;
7316;SDS011;3699;51.462;6.696;2024-02-14T12:47:17;2.20;;;1.93;;
7316;SDS011;3699;51.462;6.696;2024-02-14T12:49:46;2.70;;;2.30;;
7316;SDS011;3699;51.462;6.696;2024-02-14T12:52:13;4.00;;;2.13;;
7316;SDS011;3699;51.462;6.696;2024-02-14T12:54:40;5.17;;;2.10;;
7316;SDS011;3699;51.462;6.696;2024-02-14T12:57:07;2.80;;;2.30;;
7316;SDS011;3699;51.462;6.696;2024-02-14T12:59:35;2.97;;;1.90;;
7316;SDS011;3699;51.462;6.696;2024-02-14T13:02:01;3.67;;;1.90;;
7316;SDS011;3699;51.462;6.696;2024-02-14T13:04:31;4.70;;;1.90;;
7316;SDS011;3699;51.462;6.696;2024-02-14T13:06:58;2.40;;;1.90;;
7316;SDS011;3699;51.462;6.696;2024-02-14T13:09:25;2.33;;;1.83;;
7316;SDS011;3699;51.462;6.696;2024-02-14T13:11:52;1.87;;;1.60;;
7316;SDS011;3699;51.462;6.696;2024-02-14T13:14:19;1.50;;;1.40;;
7316;SDS011;3699;51.462;6.696;2024-02-14T13:16:47;3.90;;;1.93;;
7316;SDS011;3699;51.462;6.696;2024-02-14T13:19:14;3.10;;;2.00;;
7316;SDS011;3699;51.462;6.696;2024-02-14T13:21:41;2.40;;;1.90;;
7316;SDS011;3699;51.462;6.696;2024-02-14T13:24:10;2.20;;;1.80;;
7316;SDS011;3699;51.462;6.696;2024-02-14T13:26:38;2.27;;;1.77;;
7316;SDS011;3699;51.462;6.696;2024-02-14T13:29:04;2.57;;;2.00;;
7316;SDS011;3699;51.462;6.696;2024-02-14T13:31:32;2.47;;;2.27;;
7316;SDS011;3699;51.462;6.696;2024-02-14T13:34:00;3.83;;;1.90;;
7316;SDS011;3699;51.462;6.696;2024-02-14T13:36:28;3.33;;;1.90;;
7316;SDS011;3699;51.462;6.696;2024-02-14T13:38:55;1.70;;;1.60;;
7316;SDS011;3699;51.462;6.696;2024-02-14T13:41:22;2.10;;;1.73;;
7316;SDS011;3699;51.462;6.696;2024-02-14T13:43:49;2.87;;;2.03;;
7316;SDS011;3699;51.462;6.696;2024-02-14T13:46:16;4.10;;;1.80;;
7316;SDS011;3699;51.462;6.696;2024-02-14T13:48:43;1.70;;;1.60;;
7316;SDS011;3699;51.462;6.696;2024-02-14T13:51:11;1.60;;;1.50;;
7316;SDS011;3699;51.462;6.696;2024-02-14T13:53:38;2.27;;;1.60;;
7316;SDS011;3699;51.462;6.696;2024-02-14T13:56:05;2.27;;;1.90;;
7316;SDS011;3699;51.462;6.696;2024-02-14T13:58:32;1.60;;;1.50;;
7316;SDS011;3699;51.462;6.696;2024-02-14T14:00:59;2.90;;;1.73;;
7316;SDS011;3699;51.462;6.696;2024-02-14T14:03:26;2.07;;;1.70;;
7316;SDS011;3699;51.462;6.696;2024-02-14T14:05:54;3.93;;;1.67;;
7316;SDS011;3699;51.462;6.696;2024-02-14T14:08:23;2.13;;;1.60;;
7316;SDS011;3699;51.462;6.696;2024-02-14T14:10:49;1.50;;;1.40;;
7316;SDS011;3699;51.462;6.696;2024-02-14T14:13:16;1.40;;;1.40;;
7316;SDS011;3699;51.462;6.696;2024-02-14T14:15:43;1.77;;;1.67;;
7316;SDS011;3699;51.462;6.696;2024-02-14T14:18:10;2.07;;;1.47;;
7316;SDS011;3699;51.462;6.696;2024-02-14T14:20:36;3.03;;;1.60;;
7316;SDS011;3699;51.462;6.696;2024-02-14T14:23:03;1.67;;;1.50;;
7316;SDS011;3699;51.462;6.696;2024-02-14T14:25:32;1.40;;;1.30;;
7316;SDS011;3699;51.462;6.696;2024-02-14T14:27:59;2.60;;;1.40;;
7316;SDS011;3699;51.462;6.696;2024-02-14T14:30:27;1.60;;;1.50;;
7316;SDS011;3699;51.462;6.696;2024-02-14T14:32:54;1.70;;;1.60;;
7316;SDS011;3699;51.462;6.696;2024-02-14T14:35:21;3.37;;;1.60;;
7316;SDS011;3699;51.462;6.696;2024-02-14T14:37:49;1.87;;;1.60;;
7316;SDS011;3699;51.462;6.696;2024-02-14T14:40:16;1.37;;;1.27;;
7316;SDS011;3699;51.462;6.696;2024-02-14T14:42:44;3.53;;;1.73;;
7316;SDS011;3699;51.462;6.696;2024-02-14T14:45:11;2.97;;;1.40;;
7316;SDS011;3699;51.462;6.696;2024-02-14T14:47:38;2.27;;;1.43;;
7316;SDS011;3699;51.462;6.696;2024-02-14T14:50:05;2.40;;;1.30;;
7316;SDS011;3699;51.462;6.696;2024-02-14T14:52:33;1.50;;;1.40;;
7316;SDS011;3699;51.462;6.696;2024-02-14T14:55:00;1.60;;;1.50;;
7316;SDS011;3699;51.462;6.696;2024-02-14T14:57:26;2.57;;;1.33;;
7316;SDS011;3699;51.462;6.696;2024-02-14T14:59:55;1.43;;;1.30;;
7316;SDS011;3699;51.462;6.696;2024-02-14T15:02:22;1.53;;;1.40;;
7316;SDS011;3699;51.462;6.696;2024-02-14T15:04:48;1.73;;;1.40;;
7316;SDS011;3699;51.462;6.696;2024-02-14T15:07:16;1.80;;;1.70;;
7316;SDS011;3699;51.462;6.696;2024-02-14T15:09:45;6.10;;;1.93;;
7316;SDS011;3699;51.462;6.696;2024-02-14T15:12:11;2.33;;;1.60;;
7316;SDS011;3699;51.462;6.696;2024-02-14T15:14:39;1.30;;;1.30;;
7316;SDS011;3699;51.462;6.696;2024-02-14T15:17:07;2.40;;;1.50;;